Terminal Aerodrome Forecast
Issued by NWS

Home | Current Version | Previous Version | Text Only | Print | Product List | Glossary On
Versions: 1 2 3 4 5 6 7 8 9 10 11 12 13 14 15 16
000
FTAK31 PAJN 221100 RRA
TAFAKT
TAF
PAKT 221142Z 2212/2312 15005KT P6SM -SHRA SCT030 OVC060
     FM221600 14007KT P6SM VCSH FEW035 BKN060
     FM222100 13010KT P6SM BKN060
      AMD LTD TO CLD VIS AND WIND 2212/2215=

USA.gov is the U.S. government's official web portal to all federal, state and local government web resources and services.